Time;durP1;ratioP1;P1;durP2;ratioP2;P2;SDS_P1;SDS_P2;PMS_P1;PMS_P2;Temp;Humidity;BMP_temperature;BMP_pressure;BME280_temperature;BME280_humidity;BME280_pressure;Samples;Min_cycle;Max_cycle;Signal;HPM_P1;HPM_P2
2023/07/23 00:00:48;;;;;;;6.83;3.80;;;;;;;13.85;100.00;96782.22;5068650;28;20602;-63
2023/07/23 00:03:16;;;;;;;3.70;3.50;;;;;;;13.92;100.00;96779.50;5071192;28;20620;-62
2023/07/23 00:05:44;;;;;;;3.70;3.50;;;;;;;13.97;100.00;96774.31;5074645;28;20203;-63
2023/07/23 00:08:13;;;;;;;4.67;3.37;;;;;;;14.02;100.00;96787.00;5072959;28;20260;-64
2023/07/23 00:10:40;;;;;;;3.97;3.67;;;;;;;14.14;100.00;96776.47;5078654;28;20223;-61
2023/07/23 00:13:09;;;;;;;3.87;3.67;;;;;;;14.17;100.00;96771.50;5014326;28;20298;-65
2023/07/23 00:15:37;;;;;;;3.57;3.37;;;;;;;14.14;100.00;96763.16;5075480;28;20310;-65
2023/07/23 00:18:05;;;;;;;4.67;3.63;;;;;;;14.04;100.00;96763.63;5073008;28;20226;-63
2023/07/23 00:20:32;;;;;;;3.93;3.63;;;;;;;13.99;100.00;96766.94;5073751;28;20206;-64
2023/07/23 00:23:00;;;;;;;4.00;3.70;;;;;;;13.86;100.00;96775.03;4963896;28;20214;-67
2023/07/23 00:25:28;;;;;;;3.90;3.60;;;;;;;13.78;100.00;96767.31;5077422;28;20194;-64
2023/07/23 00:27:56;;;;;;;4.03;3.70;;;;;;;13.77;100.00;96769.13;5069829;28;20254;-66
2023/07/23 00:30:25;;;;;;;3.83;3.63;;;;;;;13.75;100.00;96766.69;5076748;28;20238;-65
2023/07/23 00:32:52;;;;;;;3.97;3.47;;;;;;;13.66;100.00;96761.84;5025114;28;20210;-62
2023/07/23 00:35:20;;;;;;;4.10;3.80;;;;;;;13.73;100.00;96766.09;5072356;28;20206;-65
2023/07/23 00:37:48;;;;;;;4.20;3.90;;;;;;;13.79;100.00;96758.28;5075840;28;20321;-63
2023/07/23 00:40:16;;;;;;;4.17;3.83;;;;;;;13.84;100.00;96763.78;5073211;28;20229;-64
2023/07/23 00:42:43;;;;;;;4.10;3.80;;;;;;;13.83;100.00;96751.50;5066948;28;20917;-65
2023/07/23 00:45:11;;;;;;;5.87;3.77;;;;;;;13.88;100.00;96749.81;5073282;28;20278;-62
2023/07/23 00:47:41;;;;;;;13.40;3.80;;;;;;;13.99;100.00;96750.97;5025303;28;20451;-64
2023/07/23 00:50:09;;;;;;;4.10;3.77;;;;;;;14.14;100.00;96742.66;5058385;28;20709;-63
2023/07/23 00:52:38;;;;;;;4.30;3.90;;;;;;;14.15;100.00;96738.16;5068216;28;20349;-63
2023/07/23 00:55:07;;;;;;;4.73;4.33;;;;;;;14.17;100.00;96749.41;5076486;28;20281;-64
2023/07/23 00:57:34;;;;;;;5.23;3.73;;;;;;;14.26;100.00;96748.09;4959832;28;20533;-66
2023/07/23 01:00:04;;;;;;;4.07;3.77;;;;;;;14.33;100.00;96748.84;5075038;28;20663;-64
2023/07/23 01:02:32;;;;;;;6.97;3.97;;;;;;;14.31;100.00;96747.44;5061467;28;20289;-63
2023/07/23 01:05:02;;;;;;;6.23;3.97;;;;;;;14.43;100.00;96739.56;5074194;28;20236;-64
2023/07/23 01:07:30;;;;;;;4.03;3.60;;;;;;;14.53;100.00;96733.69;5025589;28;21049;-62
2023/07/23 01:09:58;;;;;;;4.97;3.97;;;;;;;14.60;100.00;96735.28;5075756;28;20200;-66
2023/07/23 01:12:26;;;;;;;4.97;3.53;;;;;;;14.67;100.00;96737.03;5009815;28;20313;-63
2023/07/23 01:14:54;;;;;;;3.33;3.13;;;;;;;14.73;100.00;96737.03;5009798;28;20229;-63
2023/07/23 01:17:21;;;;;;;3.83;3.57;;;;;;;14.75;100.00;96742.94;5076010;28;20313;-65
2023/07/23 01:20:00;;;;;;;4.23;3.83;;;;;;;14.65;100.00;96707.97;5023338;28;20632;-65
2023/07/23 01:22:29;;;;;;;3.60;3.30;;;;;;;14.83;100.00;96738.34;5076054;28;20729;-64
2023/07/23 01:24:57;;;;;;;5.00;3.53;;;;;;;14.76;100.00;96739.25;5071273;28;20301;-63
2023/07/23 01:27:24;;;;;;;3.73;3.43;;;;;;;14.84;100.00;96739.97;5074764;28;20288;-64
2023/07/23 01:29:52;;;;;;;3.47;3.27;;;;;;;14.86;100.00;96738.72;4963031;28;21153;-64
2023/07/23 01:32:19;;;;;;;4.13;3.73;;;;;;;14.87;100.00;96735.03;5068900;28;20222;-62
2023/07/23 01:34:47;;;;;;;4.37;3.97;;;;;;;14.85;100.00;96733.59;5070695;28;20207;-62
2023/07/23 01:37:15;;;;;;;5.53;3.90;;;;;;;14.82;100.00;96731.38;5070553;28;20261;-65
2023/07/23 01:39:45;;;;;;;3.73;3.47;;;;;;;14.85;100.00;96731.75;5025038;28;20578;-63
2023/07/23 01:42:13;;;;;;;4.27;3.77;;;;;;;14.86;100.00;96729.91;5074016;28;20290;-63
2023/07/23 01:44:42;;;;;;;4.43;4.03;;;;;;;14.78;100.00;96725.69;5067851;28;20291;-62
2023/07/23 01:47:10;;;;;;;4.17;3.80;;;;;;;14.85;100.00;96733.59;5073745;28;20245;-63
2023/07/23 01:49:38;;;;;;;7.37;3.77;;;;;;;14.89;100.00;96727.63;5000303;28;20233;-66
2023/07/23 01:52:06;;;;;;;3.63;3.43;;;;;;;14.72;100.00;96700.72;5073347;28;20317;-65
2023/07/23 01:54:34;;;;;;;4.23;3.87;;;;;;;14.94;100.00;96732.25;5026479;28;20221;-63
2023/07/23 01:57:03;;;;;;;4.57;4.17;;;;;;;14.93;100.00;96729.84;5074343;28;20305;-64
2023/07/23 01:59:31;;;;;;;3.90;3.60;;;;;;;14.87;100.00;96724.34;5068887;28;20289;-65
2023/07/23 02:01:58;;;;;;;4.20;3.80;;;;;;;14.85;100.00;96726.44;5067330;28;20287;-63
2023/07/23 02:04:26;;;;;;;4.37;4.07;;;;;;;14.77;100.00;96721.38;4956058;28;20348;-63
2023/07/23 02:06:54;;;;;;;4.13;3.70;;;;;;;14.77;100.00;96726.72;5069914;28;20263;-63
2023/07/23 02:09:22;;;;;;;4.60;4.20;;;;;;;14.81;100.00;96721.75;5064215;28;20285;-65
2023/07/23 02:11:49;;;;;;;3.90;3.60;;;;;;;14.74;100.00;96714.66;5070644;28;20749;-64
2023/07/23 02:14:18;;;;;;;3.73;3.47;;;;;;;14.72;100.00;96724.72;5023356;28;20272;-64
2023/07/23 02:16:46;;;;;;;5.17;3.67;;;;;;;14.66;100.00;96720.25;5062343;28;20230;-67
2023/07/23 02:19:14;;;;;;;4.40;3.97;;;;;;;14.62;100.00;96721.72;5053904;28;20493;-65
2023/07/23 02:21:42;;;;;;;4.47;4.17;;;;;;;14.59;100.00;96725.63;5075180;28;20283;-64
2023/07/23 02:24:09;;;;;;;5.03;3.80;;;;;;;14.58;100.00;96720.53;5066098;28;20516;-63
2023/07/23 02:26:37;;;;;;;4.40;4.00;;;;;;;14.57;100.00;96721.56;5072943;28;20215;-64
2023/07/23 02:29:05;;;;;;;4.20;3.90;;;;;;;14.59;100.00;96728.31;5008729;28;20284;-66
2023/07/23 02:31:34;;;;;;;4.40;4.00;;;;;;;14.66;100.00;96730.09;5070784;28;20207;-63
2023/07/23 02:34:02;;;;;;;4.80;4.03;;;;;;;14.72;100.00;96719.38;5059356;28;20297;-63
2023/07/23 02:36:30;;;;;;;3.97;3.67;;;;;;;14.68;100.00;96722.69;5072825;28;20856;-65
2023/07/23 02:38:57;;;;;;;4.57;4.03;;;;;;;14.69;100.00;96722.47;4967875;28;20267;-64
2023/07/23 02:41:25;;;;;;;4.37;3.97;;;;;;;14.81;100.00;96719.09;5062101;28;20302;-65
2023/07/23 02:43:54;;;;;;;4.60;4.13;;;;;;;14.84;100.00;96724.81;5072087;28;20198;-64
2023/07/23 02:46:21;;;;;;;5.00;4.10;;;;;;;14.85;100.00;96714.94;5078042;28;20198;-62
2023/07/23 02:48:50;;;;;;;5.97;4.33;;;;;;;14.82;100.00;96720.72;5024156;28;20230;-62
2023/07/23 02:51:19;;;;;;;5.37;4.07;;;;;;;14.80;100.00;96717.47;5073420;28;20221;-65
2023/07/23 02:53:46;;;;;;;4.03;3.63;;;;;;;14.81;100.00;96724.41;5072129;28;20651;-64
2023/07/23 02:56:14;;;;;;;4.23;3.87;;;;;;;14.89;100.00;96722.28;5072906;28;20279;-66
2023/07/23 02:58:41;;;;;;;4.27;3.97;;;;;;;14.87;100.00;96723.53;5011921;28;20227;-65
2023/07/23 03:01:09;;;;;;;4.50;4.10;;;;;;;14.90;100.00;96726.56;5073313;28;20321;-64
2023/07/23 03:03:37;;;;;;;4.20;3.90;;;;;;;14.74;100.00;96695.16;5073418;28;20200;-65
2023/07/23 03:06:08;;;;;;;4.20;3.90;;;;;;;14.92;100.00;96720.19;5068303;28;20199;-63
2023/07/23 03:08:36;;;;;;;4.37;3.93;;;;;;;14.97;100.00;96725.69;5067748;28;20335;-62
2023/07/23 03:11:05;;;;;;;3.90;3.60;;;;;;;14.97;100.00;96729.19;5078907;28;20316;-64
2023/07/23 03:13:34;;;;;;;4.17;3.97;;;;;;;15.00;100.00;96728.72;4962391;28;20724;-65
2023/07/23 03:16:02;;;;;;;5.43;3.67;;;;;;;14.96;100.00;96716.03;5074934;28;20717;-65
2023/07/23 03:18:30;;;;;;;4.20;3.80;;;;;;;15.03;100.00;96719.44;5022258;28;20233;-67
2023/07/23 03:20:57;;;;;;;4.67;4.03;;;;;;;14.96;100.00;96714.19;5069262;28;20295;-62
2023/07/23 03:23:27;;;;;;;4.60;4.20;;;;;;;14.90;100.00;96715.91;5064839;28;20827;-62
2023/07/23 03:25:54;;;;;;;4.10;3.80;;;;;;;14.93;100.00;96719.16;5077264;28;20249;-63
2023/07/23 03:28:22;;;;;;;5.50;4.47;;;;;;;14.87;100.00;96713.69;5077409;28;20305;-64
2023/07/23 03:30:50;;;;;;;4.47;4.17;;;;;;;14.88;100.00;96707.31;5070258;28;20268;-66
2023/07/23 03:33:17;;;;;;;4.90;3.70;;;;;;;14.84;100.00;96713.31;5023213;28;20317;-67
2023/07/23 03:35:45;;;;;;;3.80;3.60;;;;;;;14.76;100.00;96711.75;5062598;28;20291;-62
2023/07/23 03:38:13;;;;;;;4.90;3.60;;;;;;;14.68;100.00;96712.00;5062931;28;20322;-64
2023/07/23 03:40:42;;;;;;;4.30;3.90;;;;;;;14.61;100.00;96710.25;5074869;28;20303;-63
2023/07/23 03:43:10;;;;;;;8.93;4.00;;;;;;;14.58;100.00;96705.34;4980523;28;21015;-67
2023/07/23 03:45:38;;;;;;;3.97;3.77;;;;;;;14.52;100.00;96708.06;5064573;28;20756;-65
2023/07/23 03:48:07;;;;;;;3.93;3.57;;;;;;;14.40;100.00;96706.16;5027082;28;20750;-68
2023/07/23 03:50:35;;;;;;;4.10;3.70;;;;;;;14.36;100.00;96712.13;5006496;28;20206;-64
2023/07/23 03:53:03;;;;;;;5.40;4.37;;;;;;;14.31;100.00;96713.59;5063229;28;20760;-62
2023/07/23 03:55:30;;;;;;;6.13;4.53;;;;;;;14.27;100.00;96709.75;5064483;28;20556;-62
2023/07/23 03:57:59;;;;;;;4.17;3.87;;;;;;;14.27;100.00;96715.06;5071745;28;20318;-63
2023/07/23 04:00:27;;;;;;;5.00;4.20;;;;;;;14.25;100.00;96711.81;5068682;28;20836;-64
2023/07/23 04:02:55;;;;;;;4.73;4.23;;;;;;;14.15;100.00;96714.97;5021024;28;20286;-64
2023/07/23 04:05:23;;;;;;;4.30;4.00;;;;;;;14.14;100.00;96716.00;5072166;28;20203;-66
2023/07/23 04:07:50;;;;;;;4.83;4.43;;;;;;;14.12;100.00;96720.75;5008897;28;20295;-64
2023/07/23 04:10:18;;;;;;;4.80;4.40;;;;;;;14.09;100.00;96726.50;5082436;28;20627;-62
2023/07/23 04:12:45;;;;;;;4.47;4.07;;;;;;;14.13;100.00;96721.56;5021099;28;20313;-62
2023/07/23 04:15:14;;;;;;;5.17;4.10;;;;;;;14.14;100.00;96718.66;5072089;28;20198;-64
2023/07/23 04:17:42;;;;;;;4.93;3.50;;;;;;;14.21;100.00;96720.50;4960154;28;20234;-66
2023/07/23 04:20:10;;;;;;;4.10;3.70;;;;;;;14.23;100.00;96721.09;5074028;28;20234;-66
2023/07/23 04:22:38;;;;;;;4.50;4.03;;;;;;;14.18;100.00;96725.19;5022602;28;20234;-64
2023/07/23 04:25:07;;;;;;;4.23;3.87;;;;;;;14.29;100.00;96720.19;5067466;28;20210;-63
2023/07/23 04:27:35;;;;;;;4.33;4.03;;;;;;;14.33;100.00;96710.72;5071310;28;20725;-64
2023/07/23 04:30:02;;;;;;;4.17;3.87;;;;;;;14.43;100.00;96715.56;5078831;28;20237;-64
2023/07/23 04:32:31;;;;;;;4.33;4.03;;;;;;;14.50;100.00;96718.16;5071910;28;20206;-63
2023/07/23 04:34:59;;;;;;;4.27;3.77;;;;;;;14.60;100.00;96721.94;5068409;28;20224;-62
2023/07/23 04:37:26;;;;;;;4.40;4.10;;;;;;;14.70;100.00;96724.13;5014902;28;20317;-63
2023/07/23 04:39:54;;;;;;;6.87;4.40;;;;;;;14.75;100.00;96710.13;5076235;28;20248;-63
2023/07/23 04:42:22;;;;;;;5.83;4.10;;;;;;;14.93;100.00;96719.97;5020549;28;20304;-66
2023/07/23 04:44:49;;;;;;;4.93;4.53;;;;;;;14.97;100.00;96723.84;5070514;28;20221;-62
2023/07/23 04:47:17;;;;;;;4.80;4.40;;;;;;;15.00;100.00;96725.22;4959403;28;20253;-65
2023/07/23 04:49:46;;;;;;;4.97;4.43;;;;;;;15.13;100.00;96722.38;5073295;28;20202;-66
2023/07/23 04:52:14;;;;;;;4.90;4.50;;;;;;;15.27;100.00;96719.56;5074164;28;20649;-63
2023/07/23 04:54:41;;;;;;;4.60;4.30;;;;;;;15.31;100.00;96721.53;5073657;28;20226;-64
2023/07/23 04:57:09;;;;;;;4.80;4.40;;;;;;;15.37;100.00;96727.03;5014132;28;20254;-66
2023/07/23 04:59:36;;;;;;;4.70;4.23;;;;;;;15.41;100.00;96721.00;5058608;28;20299;-66
2023/07/23 05:02:04;;;;;;;5.50;5.00;;;;;;;15.51;100.00;96725.81;5070978;28;20306;-64
2023/07/23 05:04:33;;;;;;;5.07;4.57;;;;;;;15.54;100.00;96724.56;5072339;28;20252;-64
2023/07/23 05:07:03;;;;;;;6.43;4.63;;;;;;;15.71;100.00;96725.53;5064110;28;20319;-62
2023/07/23 05:09:30;;;;;;;6.20;4.40;;;;;;;15.85;100.00;96725.31;5065880;28;20260;-64
2023/07/23 05:11:58;;;;;;;4.50;4.10;;;;;;;16.02;100.00;96725.50;5010550;28;20210;-66
2023/07/23 05:14:26;;;;;;;4.53;4.13;;;;;;;16.11;100.00;96729.47;5068161;28;20313;-63
2023/07/23 05:16:53;;;;;;;7.40;4.30;;;;;;;16.26;100.00;96720.97;5012078;28;20225;-63
2023/07/23 05:19:21;;;;;;;4.53;3.80;;;;;;;16.45;100.00;96732.38;5075860;28;20260;-65
2023/07/23 05:21:49;;;;;;;5.13;4.63;;;;;;;16.57;100.00;96728.91;4985614;28;20575;-63
2023/07/23 05:24:18;;;;;;;4.40;4.00;;;;;;;16.67;100.00;96734.47;5074242;28;20209;-67
2023/07/23 05:26:46;;;;;;;4.30;3.97;;;;;;;16.92;100.00;96730.72;5074181;28;20990;-64
2023/07/23 05:29:14;;;;;;;6.77;4.53;;;;;;;16.94;100.00;96739.31;5076847;28;20209;-65
2023/07/23 05:31:42;;;;;;;4.60;4.20;;;;;;;17.06;100.00;96739.34;5064007;28;20821;-65
2023/07/23 05:34:10;;;;;;;5.30;4.20;;;;;;;17.20;100.00;96740.69;5073371;28;20221;-65
2023/07/23 05:36:38;;;;;;;4.40;4.10;;;;;;;17.38;100.00;96740.75;5070689;28;20656;-65
2023/07/23 05:39:05;;;;;;;4.60;4.30;;;;;;;17.43;100.00;96740.84;5059941;28;20227;-66
2023/07/23 05:41:34;;;;;;;4.83;4.23;;;;;;;17.57;100.00;96746.72;5061787;28;20301;-64
2023/07/23 05:44:02;;;;;;;4.50;4.10;;;;;;;17.75;100.00;96746.50;5075055;28;20202;-63
2023/07/23 05:46:30;;;;;;;5.23;4.30;;;;;;;17.59;100.00;96741.94;5029085;28;20218;-66
2023/07/23 05:48:57;;;;;;;6.67;4.40;;;;;;;17.35;100.00;96748.22;5070267;28;20308;-67
2023/07/23 05:51:25;;;;;;;5.03;4.60;;;;;;;17.15;100.00;96745.13;5028785;28;20301;-62
2023/07/23 05:53:53;;;;;;;5.43;4.27;;;;;;;17.21;100.00;96745.00;4986798;28;20400;-66
2023/07/23 05:56:21;;;;;;;4.80;4.50;;;;;;;17.39;100.00;96745.06;5073329;28;20226;-67
2023/07/23 05:58:50;;;;;;;4.00;3.70;;;;;;;17.69;100.00;96750.16;5063235;28;20295;-65
2023/07/23 06:01:17;;;;;;;4.20;4.00;;;;;;;17.85;100.00;96745.88;5068143;28;20341;-65
2023/07/23 06:03:45;;;;;;;4.63;4.23;;;;;;;18.04;100.00;96741.13;5073632;28;20209;-63
2023/07/23 06:06:20;;;;;;;4.67;4.27;;;;;;;18.05;100.00;96745.44;5070559;28;20198;-69
2023/07/23 06:08:48;;;;;;;4.10;3.70;;;;;;;18.22;100.00;96739.28;5064400;28;20242;-67
2023/07/23 06:11:15;;;;;;;4.23;3.57;;;;;;;18.46;100.00;96745.28;5071379;28;20806;-68
2023/07/23 06:13:43;;;;;;;5.60;4.97;;;;;;;18.64;100.00;96743.38;5066188;28;20218;-68
2023/07/23 06:16:12;;;;;;;4.07;3.77;;;;;;;18.75;100.00;96753.22;5074659;28;20250;-67
2023/07/23 06:18:39;;;;;;;6.20;4.07;;;;;;;18.90;100.00;96749.09;5006658;28;20225;-67
2023/07/23 06:21:07;;;;;;;4.30;4.00;;;;;;;18.86;100.00;96746.09;5078039;28;20230;-68
2023/07/23 06:23:35;;;;;;;3.47;3.27;;;;;;;18.96;100.00;96737.38;5028037;28;20201;-69
2023/07/23 06:26:03;;;;;;;4.23;3.93;;;;;;;19.05;100.00;96746.63;5077662;28;20210;-67
2023/07/23 06:28:31;;;;;;;4.17;3.87;;;;;;;18.90;100.00;96733.00;4983153;28;20217;-65
2023/07/23 06:30:59;;;;;;;4.67;4.27;;;;;;;19.18;100.00;96752.72;5074615;28;20562;-65
2023/07/23 06:33:29;;;;;;;5.40;3.50;;;;;;;19.31;100.00;96756.88;5074653;28;20733;-66
2023/07/23 06:35:56;;;;;;;4.17;3.87;;;;;;;19.54;100.00;96750.44;5067957;28;20333;-66
2023/07/23 06:38:24;;;;;;;3.80;3.50;;;;;;;19.72;100.00;96751.13;5037356;28;20257;-65
2023/07/23 06:40:53;;;;;;;3.87;3.50;;;;;;;19.77;100.00;96752.00;5068654;28;20293;-66
2023/07/23 06:43:20;;;;;;;4.53;4.13;;;;;;;20.07;100.00;96749.88;5061515;28;20218;-67
2023/07/23 06:45:49;;;;;;;4.60;4.20;;;;;;;20.12;100.00;96747.22;5075331;28;20199;-66
2023/07/23 06:48:19;;;;;;;4.77;3.90;;;;;;;20.25;100.00;96737.94;5021761;28;20309;-66
2023/07/23 06:50:48;;;;;;;3.90;3.63;;;;;;;20.34;100.00;96746.34;5069550;28;20853;-67
2023/07/23 06:53:15;;;;;;;4.13;3.53;;;;;;;20.47;100.00;96737.00;5027344;28;20206;-66
2023/07/23 06:56:00;;;;;;;4.80;4.30;;;;;;;20.53;99.72;96734.09;5075232;28;20770;-66
2023/07/23 06:58:29;;;;;;;4.50;4.10;;;;;;;20.52;99.73;96740.53;5067300;28;20316;-67
2023/07/23 07:00:57;;;;;;;4.20;3.80;;;;;;;20.63;100.00;96743.28;5070883;28;20293;-66
2023/07/23 07:03:25;;;;;;;4.67;4.27;;;;;;;20.73;100.00;96739.84;4990344;28;20218;-68
2023/07/23 07:05:55;;;;;;;3.40;3.20;;;;;;;20.88;99.50;96747.22;5077730;28;20202;-65
2023/07/23 07:08:22;;;;;;;4.23;3.83;;;;;;;20.74;98.14;96738.78;5072466;28;20244;-64
2023/07/23 07:10:51;;;;;;;4.10;3.70;;;;;;;20.71;100.00;96744.69;5072024;28;20234;-65
2023/07/23 07:13:18;;;;;;;4.60;3.40;;;;;;;;;;5015006;28;20202;-64
2023/07/23 07:15:46;;;;;;;4.30;3.90;;;;;;;20.80;99.61;96738.59;5071428;28;20727;-65
2023/07/23 07:18:14;;;;;;;4.00;3.60;;;;;;;20.46;100.00;96744.25;5021337;28;20313;-66
2023/07/23 07:20:41;;;;;;;4.67;4.27;;;;;;;20.59;100.00;96737.63;5074568;28;20286;-67
2023/07/23 07:23:10;;;;;;;4.03;3.73;;;;;;;20.55;99.58;96736.53;5063313;28;20202;-64
2023/07/23 07:25:38;;;;;;;3.93;3.63;;;;;;;20.44;100.00;96738.34;5078178;28;20202;-60
2023/07/23 07:28:05;;;;;;;4.07;3.67;;;;;;;20.49;100.00;96738.38;5068995;28;20314;-61
2023/07/23 07:30:33;;;;;;;3.77;3.47;;;;;;;20.78;100.00;96737.19;5073575;28;20199;-65
2023/07/23 07:33:01;;;;;;;4.17;3.80;;;;;;;20.99;100.00;96730.03;4961325;28;20219;-67
2023/07/23 07:35:29;;;;;;;4.17;3.87;;;;;;;20.96;98.56;96741.34;5021854;28;20760;-66
2023/07/23 07:37:56;;;;;;;5.70;5.07;;;;;;;21.00;99.02;96737.03;5074173;28;20719;-65
2023/07/23 07:40:27;;;;;;;6.03;5.50;;;;;;;20.87;95.27;96718.69;5067422;28;20296;-68
2023/07/23 07:42:55;;;;;;;4.03;3.57;;;;;;;21.10;96.53;96726.34;5072706;28;20203;-67
2023/07/23 07:45:23;;;;;;;4.13;3.83;;;;;;;21.34;97.71;96731.25;5035913;28;22545;-67
2023/07/23 07:47:50;;;;;;;3.80;3.50;;;;;;;21.53;93.97;96726.19;5064400;28;20223;-66
2023/07/23 07:50:18;;;;;;;5.23;3.83;;;;;;;21.80;94.53;96724.41;5063146;28;20754;-68
2023/07/23 07:52:47;;;;;;;5.20;4.27;;;;;;;21.98;92.57;96720.38;5075158;28;20302;-67
2023/07/23 07:55:15;;;;;;;4.00;3.60;;;;;;;22.18;88.78;96719.56;5077595;28;20222;-68
2023/07/23 07:57:45;;;;;;;4.10;3.80;;;;;;;22.36;85.17;96707.41;5068723;28;20310;-66
2023/07/23 08:00:13;;;;;;;4.33;3.30;;;;;;;22.43;82.59;96690.13;5036713;28;20819;-68
2023/07/23 08:02:42;;;;;;;4.10;3.50;;;;;;;22.75;83.13;96719.47;5048213;28;20202;-64
2023/07/23 08:05:11;;;;;;;3.23;3.03;;;;;;;22.99;81.33;96708.88;5018835;28;21772;-67
2023/07/23 08:07:41;;;;;;;4.03;3.73;;;;;;;23.31;79.14;96704.19;5038765;28;20258;-67
2023/07/23 08:10:09;;;;;;;3.50;3.20;;;;;;;23.40;73.95;96709.78;5074271;28;20194;-66
2023/07/23 08:12:37;;;;;;;3.30;3.10;;;;;;;23.60;71.48;96710.78;5068637;28;20285;-66
2023/07/23 08:15:08;;;;;;;3.17;2.97;;;;;;;23.59;71.34;96709.94;5017038;28;21413;-67
2023/07/23 08:17:37;;;;;;;3.00;2.80;;;;;;;23.53;71.13;96701.09;5073542;28;20305;-66
2023/07/23 08:20:07;;;;;;;3.40;3.10;;;;;;;23.37;73.20;96697.66;5025513;28;20206;-67
2023/07/23 08:22:35;;;;;;;3.70;3.50;;;;;;;23.49;75.32;96699.22;5069473;28;20206;-66
2023/07/23 08:25:04;;;;;;;3.67;3.10;;;;;;;23.54;73.95;96691.06;5074256;28;20237;-68
2023/07/23 08:27:31;;;;;;;3.33;3.03;;;;;;;23.78;72.17;96696.56;5077656;28;20354;-64
2023/07/23 08:29:59;;;;;;;3.60;3.40;;;;;;;24.10;72.23;96697.19;5014610;28;20212;-66
2023/07/23 08:32:30;;;;;;;3.83;3.47;;;;;;;24.04;69.90;96693.72;5074492;28;20201;-66
2023/07/23 08:34:58;;;;;;;4.03;3.57;;;;;;;24.09;69.37;96677.44;5071361;28;20255;-67
2023/07/23 08:37:26;;;;;;;3.90;3.60;;;;;;;24.39;65.42;96693.66;5077971;28;20325;-64
2023/07/23 08:39:54;;;;;;;3.30;3.10;;;;;;;24.64;66.65;96684.50;4981532;28;21845;-69
2023/07/23 08:42:49;;;;;;;3.30;3.00;;;;;;;24.71;62.68;96684.13;5072713;28;20195;-66
2023/07/23 08:45:58;;;;;;;5.50;3.60;;;;;;;24.91;61.50;96685.03;5008358;28;20206;-67
2023/07/23 08:48:42;;;;;;;3.63;3.33;;;;;;;24.54;61.71;96684.56;5066563;28;20222;-66
2023/07/23 08:51:11;;;;;;;3.33;3.13;;;;;;;24.46;60.68;96683.31;5068579;28;21197;-66
2023/07/23 08:53:38;;;;;;;3.53;3.20;;;;;;;24.16;57.14;96690.63;5062245;28;20290;-66
2023/07/23 08:56:06;;;;;;;3.90;3.60;;;;;;;24.25;61.82;96685.44;5070779;28;20229;-66
2023/07/23 08:58:34;;;;;;;3.37;3.13;;;;;;;24.32;60.00;96693.19;5072027;28;20234;-66
2023/07/23 09:01:01;;;;;;;2.90;2.70;;;;;;;24.43;57.44;96683.88;5008798;28;20290;-66
2023/07/23 09:03:31;;;;;;;2.40;2.30;;;;;;;24.46;56.43;96690.63;5076706;28;20803;-66
2023/07/23 09:06:00;;;;;;;3.70;2.37;;;;;;;24.39;55.30;96674.72;5069729;28;20202;-66
2023/07/23 09:08:27;;;;;;;2.70;2.60;;;;;;;24.57;54.63;96684.81;5075547;28;20232;-65
2023/07/23 09:10:55;;;;;;;2.83;2.63;;;;;;;24.47;54.50;96684.94;5011667;28;20831;-64
2023/07/23 09:13:23;;;;;;;2.87;2.67;;;;;;;24.67;55.85;96677.69;5071981;28;20306;-65
2023/07/23 09:15:54;;;;;;;3.90;3.60;;;;;;;24.95;54.13;96677.94;4980902;28;20222;-65
2023/07/23 09:18:22;;;;;;;2.63;2.33;;;;;;;24.80;54.03;96671.59;5076222;28;20219;-65
2023/07/23 09:20:51;;;;;;;2.70;2.50;;;;;;;24.95;54.40;96664.38;5020144;28;20214;-67
2023/07/23 09:23:18;;;;;;;2.67;2.50;;;;;;;25.31;54.22;96676.66;5073143;28;20222;-65
2023/07/23 09:25:46;;;;;;;3.00;2.80;;;;;;;25.31;54.49;96666.63;5068357;28;20267;-66
2023/07/23 09:28:21;;;;;;;3.20;3.00;;;;;;;25.41;52.74;96669.19;5072206;28;20503;-66
2023/07/23 09:30:49;;;;;;;2.80;2.60;;;;;;;25.74;54.32;96664.94;5017601;28;20289;-66
2023/07/23 09:33:16;;;;;;;3.03;2.77;;;;;;;25.68;50.95;96635.19;5062180;28;20204;-65
2023/07/23 09:35:44;;;;;;;3.30;3.00;;;;;;;26.05;52.10;96648.16;5023243;28;20295;-66
2023/07/23 09:38:14;;;;;;;3.20;2.67;;;;;;;26.28;49.20;96657.28;5070791;28;20221;-67
2023/07/23 09:40:44;;;;;;;2.63;2.43;;;;;;;26.55;50.21;96650.28;5062829;28;20199;-68
2023/07/23 09:43:13;;;;;;;3.10;2.73;;;;;;;26.56;47.54;96649.97;5069547;28;20204;-68
2023/07/23 09:45:42;;;;;;;2.30;2.20;;;;;;;26.59;48.01;96643.13;4979777;28;20626;-65
2023/07/23 09:48:09;;;;;;;2.97;2.77;;;;;;;26.85;47.43;96643.47;5064168;28;20313;-66
2023/07/23 09:50:44;;;;;;;3.03;2.83;;;;;;;26.65;48.78;96636.50;5068642;28;20199;-66
2023/07/23 09:53:14;;;;;;;3.10;2.77;;;;;;;26.76;48.27;96636.28;5072804;28;20199;-65
2023/07/23 09:55:43;;;;;;;2.53;2.33;;;;;;;26.89;47.10;96648.28;5064873;28;20200;-67
2023/07/23 09:58:11;;;;;;;3.17;2.97;;;;;;;26.99;48.33;96651.59;5066827;28;20268;-67
2023/07/23 10:00:40;;;;;;;2.47;2.37;;;;;;;27.00;47.05;96639.63;5008240;28;20209;-65
2023/07/23 10:03:07;;;;;;;2.53;2.43;;;;;;;26.97;47.48;96640.22;5073115;28;20206;-64
2023/07/23 10:05:36;;;;;;;3.00;2.80;;;;;;;26.97;46.29;96637.50;4998124;28;20214;-65
2023/07/23 10:08:04;;;;;;;2.67;2.47;;;;;;;26.74;46.81;96633.88;5076465;28;20309;-65
2023/07/23 10:10:33;;;;;;;2.83;2.63;;;;;;;26.61;45.92;96648.25;5016995;28;20238;-64
2023/07/23 10:13:01;;;;;;;2.97;2.63;;;;;;;26.70;46.98;96644.53;5076716;28;20686;-65
2023/07/23 10:15:29;;;;;;;3.23;3.03;;;;;;;26.48;47.26;96652.56;5011988;28;20218;-64
2023/07/23 10:18:00;;;;;;;2.97;2.67;;;;;;;26.64;47.24;96639.50;5075316;28;20309;-63
2023/07/23 10:20:29;;;;;;;3.57;3.00;;;;;;;27.10;47.29;96635.88;4979146;28;20217;-65
2023/07/23 10:22:57;;;;;;;2.87;2.67;;;;;;;27.02;44.66;96618.38;5075343;28;20226;-62
2023/07/23 10:25:30;;;;;;;2.90;2.80;;;;;;;27.09;45.85;96628.03;5074062;28;20216;-63
2023/07/23 10:28:06;;;;;;;3.10;2.90;;;;;;;27.19;47.53;96632.44;5075836;28;20230;-63
2023/07/23 10:30:34;;;;;;;3.17;2.97;;;;;;;27.09;45.62;96628.84;5067032;28;20287;-63
2023/07/23 10:33:29;;;;;;;3.10;2.83;;;;;;;27.41;46.51;96632.44;5072514;28;20369;-65
2023/07/23 10:35:59;;;;;;;3.30;3.03;;;;;;;27.40;45.08;96625.41;5019473;28;20686;-66
2023/07/23 10:38:28;;;;;;;2.80;2.60;;;;;;;27.25;44.60;96631.19;5073603;28;20238;-63
2023/07/23 10:40:57;;;;;;;3.07;2.87;;;;;;;26.89;43.76;96621.09;5016602;28;20218;-62
2023/07/23 10:43:37;;;;;;;5.67;3.30;;;;;;;26.71;46.65;96602.69;5070633;28;20265;-62
2023/07/23 10:46:06;;;;;;;3.03;2.83;;;;;;;26.90;46.76;96618.09;5000061;28;20299;-64
2023/07/23 10:48:55;;;;;;;3.00;2.80;;;;;;;26.91;47.54;96621.59;5077032;28;20242;-63
2023/07/23 10:51:25;;;;;;;2.37;2.27;;;;;;;27.00;46.05;96596.13;4973487;28;20220;-65
2023/07/23 10:53:55;;;;;;;3.00;2.80;;;;;;;26.78;46.54;96610.44;5068760;28;20206;-65
2023/07/23 10:56:24;;;;;;;2.87;2.67;;;;;;;26.94;46.48;96610.13;5024071;28;20226;-65
2023/07/23 10:58:57;;;;;;;2.77;2.67;;;;;;;27.51;45.79;96608.91;5068911;28;20752;-66
2023/07/23 11:01:27;;;;;;;2.40;2.30;;;;;;;27.64;46.12;96593.59;5059817;28;20673;-65
2023/07/23 11:03:58;;;;;;;3.07;2.83;;;;;;;27.82;44.98;96594.50;5073259;28;20294;-65
2023/07/23 11:06:27;;;;;;;2.90;2.70;;;;;;;27.87;44.19;96597.91;5020778;28;20218;-64
2023/07/23 11:08:57;;;;;;;5.20;3.17;;;;;;;27.43;46.07;96583.19;5063851;28;20235;-65
2023/07/23 11:11:36;;;;;;;3.37;3.13;;;;;;;27.02;45.00;96593.91;5037218;28;20932;-65
2023/07/23 11:14:19;;;;;;;2.73;2.63;;;;;;;26.97;45.53;96590.47;5073787;28;20204;-63
2023/07/23 11:16:47;;;;;;;3.00;2.80;;;;;;;27.21;45.76;96586.72;5064789;28;20256;-63
2023/07/23 11:19:17;;;;;;;3.40;3.20;;;;;;;27.76;45.71;96584.88;5074104;28;20214;-63
2023/07/23 11:21:50;;;;;;;3.67;3.37;;;;;;;27.81;43.54;96585.56;5067899;28;20232;-66
2023/07/23 11:24:18;;;;;;;3.50;3.23;;;;;;;27.52;41.32;96569.69;5071897;28;20198;-65
2023/07/23 11:26:46;;;;;;;4.20;3.40;;;;;;;27.68;42.50;96570.91;4978911;28;20215;-63
2023/07/23 11:29:14;;;;;;;3.57;3.37;;;;;;;28.44;40.45;96549.34;5074923;28;20315;-62
2023/07/23 11:31:44;;;;;;;3.53;3.13;;;;;;;28.51;40.02;96566.03;5013077;28;20211;-65
2023/07/23 11:34:13;;;;;;;3.47;3.20;;;;;;;28.19;40.41;96562.53;5068654;28;20197;-62
2023/07/23 11:36:41;;;;;;;3.07;2.90;;;;;;;27.85;40.48;96569.44;5075242;28;20313;-64